Time;durP1;ratioP1;P1;durP2;ratioP2;P2;SDS_P1;SDS_P2;PMS_P1;PMS_P2;Temp;Humidity;BMP_temperature;BMP_pressure;BME280_temperature;BME280_humidity;BME280_pressure;Samples;Min_cycle;Max_cycle;Signal;HPM_P1;HPM_P2
2022/03/14 00:02:01;;;;;;;28.00;14.13;;;;;;;2.24;50.48;101389.53;4987901;28;20047;-70
2022/03/14 00:04:31;;;;;;;20.05;12.40;;;;;;;2.24;50.08;101388.66;4984838;28;20121;-71
2022/03/14 00:06:59;;;;;;;22.65;13.00;;;;;;;2.21;50.21;101389.56;4983810;28;20050;-69
2022/03/14 00:09:27;;;;;;;27.55;14.60;;;;;;;2.18;50.23;101393.97;4985276;28;20050;-69
2022/03/14 00:11:57;;;;;;;26.52;14.65;;;;;;;2.16;50.26;101388.84;4991204;28;20137;-69
2022/03/14 00:14:24;;;;;;;22.85;11.63;;;;;;;2.16;50.10;101387.94;4992028;28;20069;-70
2022/03/14 00:16:51;;;;;;;31.98;16.42;;;;;;;2.12;50.48;101394.97;4988931;28;20054;-71
2022/03/14 00:19:20;;;;;;;22.90;10.95;;;;;;;2.12;50.25;101388.91;4987460;28;20047;-70
2022/03/14 00:21:49;;;;;;;26.58;14.07;;;;;;;2.07;50.55;101389.88;4988369;28;20509;-70
2022/03/14 00:24:16;;;;;;;19.83;11.77;;;;;;;2.04;50.26;101395.13;4988063;28;20134;-69
2022/03/14 00:26:43;;;;;;;25.48;14.43;;;;;;;2.01;50.38;101397.78;4986058;28;20052;-69
2022/03/14 00:29:10;;;;;;;24.98;14.27;;;;;;;2.00;50.62;101401.28;4988559;28;20081;-70
2022/03/14 00:31:37;;;;;;;22.27;15.60;;;;;;;1.95;50.64;101391.84;4986320;28;20050;-69
2022/03/14 00:34:06;;;;;;;26.17;13.93;;;;;;;1.91;50.76;101394.50;4985659;28;20060;-70
2022/03/14 00:36:34;;;;;;;19.42;12.18;;;;;;;1.90;50.94;101395.38;4986770;28;20117;-72
2022/03/14 00:39:03;;;;;;;31.48;13.50;;;;;;;1.89;51.07;101390.19;4984677;28;20061;-69
2022/03/14 00:41:30;;;;;;;22.67;11.57;;;;;;;1.88;50.95;101391.09;4985899;28;20126;-69
2022/03/14 00:43:57;;;;;;;23.52;16.23;;;;;;;1.86;51.19;101382.44;4985578;28;20042;-69
2022/03/14 00:46:24;;;;;;;23.08;13.25;;;;;;;1.82;51.46;101393.78;4985325;28;20052;-70
2022/03/14 00:48:51;;;;;;;23.30;15.00;;;;;;;1.78;51.42;101384.31;4988931;28;20127;-70
2022/03/14 00:51:18;;;;;;;18.95;12.48;;;;;;;1.77;51.11;101390.44;4990391;28;20648;-71
2022/03/14 00:53:45;;;;;;;28.50;15.32;;;;;;;1.71;51.53;101387.03;4992977;28;20462;-73
2022/03/14 00:56:13;;;;;;;31.20;17.77;;;;;;;1.69;51.78;101393.16;4993045;28;20204;-70
2022/03/14 00:58:41;;;;;;;23.65;13.52;;;;;;;1.66;51.47;101394.06;4991716;28;20064;-71
2022/03/14 01:01:08;;;;;;;26.65;12.80;;;;;;;1.66;51.32;101395.81;4991577;28;20139;-74
2022/03/14 01:03:35;;;;;;;27.35;14.90;;;;;;;1.63;51.42;101401.06;4991928;28;20081;-70
2022/03/14 01:06:01;;;;;;;23.77;14.23;;;;;;;1.62;51.67;101396.75;4994381;28;20050;-72
2022/03/14 01:08:29;;;;;;;24.70;11.52;;;;;;;1.59;51.45;101402.03;4989092;28;20124;-76
2022/03/14 01:10:56;;;;;;;21.73;12.63;;;;;;;1.55;51.38;101403.81;4972474;28;20078;-73
2022/03/14 01:13:24;;;;;;;30.20;17.85;;;;;;;1.53;51.65;101405.56;4988288;28;20665;-77
2022/03/14 01:15:51;;;;;;;17.80;12.00;;;;;;;1.51;51.82;101412.53;4989475;28;20051;-75
2022/03/14 01:18:18;;;;;;;21.48;12.95;;;;;;;1.47;51.71;101403.91;4988278;28;20042;-74
2022/03/14 01:20:45;;;;;;;25.50;12.80;;;;;;;1.45;51.42;101408.28;4986898;28;20042;-72
2022/03/14 01:23:13;;;;;;;25.30;12.90;;;;;;;1.42;51.85;101407.50;4986235;28;20525;-73
2022/03/14 01:25:42;;;;;;;26.83;14.02;;;;;;;1.37;51.62;101407.56;4985058;28;20054;-69
2022/03/14 01:28:10;;;;;;;29.08;14.95;;;;;;;1.36;51.78;101407.59;4985276;28;20042;-69
2022/03/14 01:30:40;;;;;;;22.38;15.10;;;;;;;1.32;51.82;101404.19;4986997;28;20050;-71
2022/03/14 01:33:07;;;;;;;25.73;13.65;;;;;;;1.30;51.95;101404.19;4986399;28;20053;-69
2022/03/14 01:35:34;;;;;;;14.85;9.27;;;;;;;1.29;52.15;101410.28;4985384;28;20058;-78
2022/03/14 01:38:01;;;;;;;18.25;10.20;;;;;;;1.30;51.73;101400.75;4986959;28;20054;-71
2022/03/14 01:40:28;;;;;;;28.67;14.70;;;;;;;1.24;51.80;101401.72;4986020;28;20046;-70
2022/03/14 01:42:55;;;;;;;33.40;15.98;;;;;;;1.24;52.13;101404.31;4985861;28;20129;-71
2022/03/14 01:45:22;;;;;;;23.83;11.55;;;;;;;1.21;51.92;101401.75;4985675;28;20125;-71
2022/03/14 01:47:51;;;;;;;19.83;11.52;;;;;;;1.22;51.96;101405.19;4985764;28;20100;-69
2022/03/14 01:50:19;;;;;;;30.65;13.25;;;;;;;1.17;52.06;101413.09;4985329;28;20145;-72
2022/03/14 01:52:47;;;;;;;29.08;15.48;;;;;;;1.16;52.47;101413.97;4986321;28;20050;-75
2022/03/14 01:55:15;;;;;;;25.75;13.93;;;;;;;1.15;52.45;101409.63;4983391;28;20046;-72
2022/03/14 01:57:42;;;;;;;21.50;13.40;;;;;;;1.13;52.35;101408.78;4985396;28;20060;-68
2022/03/14 02:00:12;;;;;;;25.55;13.02;;;;;;;1.11;52.55;101407.97;4985322;28;20625;-68
2022/03/14 02:02:39;;;;;;;27.73;14.68;;;;;;;1.09;52.62;101412.34;4985109;28;20047;-74
2022/03/14 02:05:08;;;;;;;25.48;16.83;;;;;;;1.06;52.90;101408.03;4984990;28;20053;-74
2022/03/14 02:07:35;;;;;;;21.38;11.90;;;;;;;1.06;52.38;101405.44;4985758;28;20047;-76
2022/03/14 02:10:03;;;;;;;31.42;15.95;;;;;;;1.05;52.75;101403.72;4984594;28;20410;-72
2022/03/14 02:12:31;;;;;;;21.77;12.32;;;;;;;1.04;52.31;101401.97;4985526;28;20482;-68
2022/03/14 02:14:58;;;;;;;22.40;13.13;;;;;;;1.03;52.72;101415.03;4985743;28;20097;-70
2022/03/14 02:17:25;;;;;;;20.92;9.50;;;;;;;1.01;52.91;101416.78;4985620;28;20506;-71
2022/03/14 02:19:52;;;;;;;20.55;12.80;;;;;;;1.00;52.57;101421.13;4985458;28;20046;-70
2022/03/14 02:22:21;;;;;;;21.52;12.35;;;;;;;0.98;52.84;101417.69;4985701;28;20126;-69
2022/03/14 02:24:48;;;;;;;20.92;10.65;;;;;;;0.95;52.74;101415.13;4985492;28;20061;-68
2022/03/14 02:27:19;;;;;;;27.40;13.95;;;;;;;0.92;52.84;101417.78;4991120;28;20485;-70
2022/03/14 02:29:46;;;;;;;18.38;10.88;;;;;;;0.90;52.58;101412.59;4992580;28;20073;-72
2022/03/14 02:32:13;;;;;;;23.45;12.68;;;;;;;0.90;52.47;101414.31;4990308;28;20483;-68
2022/03/14 02:34:41;;;;;;;24.50;13.38;;;;;;;0.86;52.81;101418.69;4986176;28;20069;-69
2022/03/14 02:37:09;;;;;;;23.77;11.95;;;;;;;0.85;52.59;101417.00;4988608;28;20050;-70
2022/03/14 02:39:38;;;;;;;27.83;14.20;;;;;;;0.83;52.70;101410.09;4988407;28;20046;-68
2022/03/14 02:42:05;;;;;;;21.33;12.65;;;;;;;0.82;52.70;101417.03;4988621;28;20646;-71
2022/03/14 02:44:34;;;;;;;19.60;12.75;;;;;;;0.81;52.68;101422.25;4988947;28;20068;-75
2022/03/14 02:47:04;;;;;;;19.83;11.38;;;;;;;0.79;52.71;101417.06;4988386;28;20047;-68
2022/03/14 02:49:32;;;;;;;22.60;11.23;;;;;;;0.78;52.64;101420.56;4988778;28;20062;-68
2022/03/14 02:51:59;;;;;;;27.60;15.93;;;;;;;0.79;52.83;101419.66;4989217;28;20065;-72
2022/03/14 02:54:26;;;;;;;23.42;14.27;;;;;;;0.76;52.68;101423.19;4988409;28;20126;-76
2022/03/14 02:56:56;;;;;;;18.90;10.93;;;;;;;0.73;52.79;101430.16;4986848;28;20057;-69
2022/03/14 02:59:23;;;;;;;25.25;14.45;;;;;;;0.72;52.91;101434.50;4989305;28;20050;-72
2022/03/14 03:01:50;;;;;;;23.98;12.85;;;;;;;0.75;52.55;101441.41;4989047;28;20049;-69
2022/03/14 03:04:17;;;;;;;17.98;10.15;;;;;;;0.72;52.79;101444.91;4989324;28;20092;-74
2022/03/14 03:06:45;;;;;;;19.67;11.18;;;;;;;0.70;52.63;101444.06;4987292;28;20093;-67
2022/03/14 03:09:13;;;;;;;23.75;10.90;;;;;;;0.68;52.70;101453.59;4987519;28;20055;-73
2022/03/14 03:11:40;;;;;;;16.92;10.18;;;;;;;0.67;52.39;101453.66;4987610;28;20050;-77
2022/03/14 03:14:09;;;;;;;24.13;13.88;;;;;;;0.64;52.61;101457.13;4988399;28;20053;-69
2022/03/14 03:16:37;;;;;;;21.10;12.10;;;;;;;0.60;52.55;101447.66;4986850;28;20058;-69
2022/03/14 03:19:06;;;;;;;19.05;11.07;;;;;;;0.59;52.77;101453.72;4986389;28;20092;-70
2022/03/14 03:21:34;;;;;;;21.55;13.30;;;;;;;0.57;52.68;101461.53;4986224;28;20050;-71
2022/03/14 03:24:03;;;;;;;23.77;13.85;;;;;;;0.57;52.70;101455.50;4985960;28;20448;-77
2022/03/14 03:26:30;;;;;;;21.30;11.77;;;;;;;0.56;52.89;101459.84;4985871;28;20050;-73
2022/03/14 03:28:57;;;;;;;22.15;11.05;;;;;;;0.55;52.42;101468.50;4987625;28;20050;-70
2022/03/14 03:31:28;;;;;;;20.75;11.70;;;;;;;0.53;52.82;101465.06;4986952;28;20125;-73
2022/03/14 03:33:55;;;;;;;25.30;12.27;;;;;;;0.51;52.65;101472.03;4988008;28;20387;-69
2022/03/14 03:36:22;;;;;;;18.15;11.20;;;;;;;0.51;52.61;101478.97;4987354;28;20111;-74
2022/03/14 03:38:49;;;;;;;19.48;11.30;;;;;;;0.49;52.47;101470.34;4987305;28;20216;-68
2022/03/14 03:41:16;;;;;;;23.10;13.82;;;;;;;0.48;52.76;101466.84;4986465;28;20161;-70
2022/03/14 03:43:43;;;;;;;28.50;12.70;;;;;;;0.46;53.02;101468.59;4986172;28;20045;-74
2022/03/14 03:46:10;;;;;;;24.95;14.30;;;;;;;0.44;52.87;101467.75;4967407;28;20081;-70
2022/03/14 03:48:38;;;;;;;20.10;11.13;;;;;;;0.47;53.05;101472.06;4985673;28;20085;-71
2022/03/14 03:51:06;;;;;;;26.75;12.27;;;;;;;0.42;52.95;101461.72;4986396;28;20650;-69
2022/03/14 03:53:34;;;;;;;22.75;12.10;;;;;;;0.42;52.93;101469.53;4987194;28;20053;-71
2022/03/14 03:56:01;;;;;;;20.23;11.40;;;;;;;0.42;52.79;101464.31;4986200;28;20084;-75
2022/03/14 03:58:28;;;;;;;31.55;13.98;;;;;;;0.43;53.13;101470.38;4988725;28;20050;-77
2022/03/14 04:00:54;;;;;;;22.25;12.10;;;;;;;0.43;52.83;101471.22;4990024;28;20061;-69
2022/03/14 04:03:21;;;;;;;19.58;12.77;;;;;;;0.43;53.08;101478.19;4991929;28;20136;-71
2022/03/14 04:05:50;;;;;;;30.52;12.13;;;;;;;0.44;53.32;101472.13;4992921;28;20573;-77
2022/03/14 04:08:19;;;;;;;22.25;11.55;;;;;;;0.44;52.98;101472.13;4987703;28;20783;-72
2022/03/14 04:10:54;;;;;;;21.17;11.77;;;;;;;0.43;53.22;101466.03;4986735;28;20149;-74
2022/03/14 04:13:23;;;;;;;24.15;13.43;;;;;;;0.44;53.24;101470.38;4986563;28;20106;-70
2022/03/14 04:15:52;;;;;;;31.23;15.05;;;;;;;0.45;53.18;101474.69;4988008;28;20076;-76
2022/03/14 04:18:20;;;;;;;31.02;13.95;;;;;;;0.45;53.15;101479.91;4991074;28;20070;-75
2022/03/14 04:20:47;;;;;;;23.45;11.80;;;;;;;0.44;53.05;101475.56;4990254;28;20163;-73
2022/03/14 04:23:17;;;;;;;28.58;13.82;;;;;;;0.42;53.00;101472.13;4988418;28;20101;-70
2022/03/14 04:25:50;;;;;;;20.13;12.73;;;;;;;0.43;53.40;101471.22;4967315;28;20130;-70
2022/03/14 04:28:18;;;;;;;24.08;14.73;;;;;;;0.42;53.62;101472.13;4986753;28;20471;-71
2022/03/14 04:30:45;;;;;;;29.85;16.23;;;;;;;0.42;53.27;101474.72;4987179;28;20053;-71
2022/03/14 04:33:12;;;;;;;32.35;14.55;;;;;;;0.42;53.45;101479.91;4985662;28;20054;-72
2022/03/14 04:35:40;;;;;;;32.63;15.63;;;;;;;0.41;53.23;101473.00;4986397;28;20482;-70
2022/03/14 04:38:07;;;;;;;22.00;11.55;;;;;;;0.41;53.57;101478.19;4986715;28;20046;-72
2022/03/14 04:40:36;;;;;;;25.45;12.13;;;;;;;0.40;53.65;101468.69;4986446;28;20100;-68
2022/03/14 04:43:06;;;;;;;27.75;16.08;;;;;;;0.41;53.53;101477.34;4986579;28;20050;-71
2022/03/14 04:45:34;;;;;;;21.08;10.82;;;;;;;0.38;53.39;101468.69;4989665;28;20065;-71
2022/03/14 04:48:01;;;;;;;25.65;13.73;;;;;;;0.39;53.71;101474.75;4987000;28;20058;-76
2022/03/14 04:50:28;;;;;;;27.85;13.35;;;;;;;0.37;53.90;101477.34;4985918;28;20042;-70
2022/03/14 04:52:55;;;;;;;26.92;12.23;;;;;;;0.38;53.35;101473.03;4987089;28;20106;-69
2022/03/14 04:55:22;;;;;;;21.63;13.77;;;;;;;0.38;53.80;101473.03;4985262;28;20054;-73
2022/03/14 04:57:51;;;;;;;24.88;12.80;;;;;;;0.37;53.58;101468.72;4985078;28;20105;-66
2022/03/14 05:00:18;;;;;;;25.38;14.32;;;;;;;0.37;53.68;101471.31;4983971;28;20073;-74
2022/03/14 05:02:46;;;;;;;26.10;14.23;;;;;;;0.37;53.54;101476.50;4986898;28;20133;-78
2022/03/14 05:05:13;;;;;;;20.52;12.18;;;;;;;0.36;53.57;101479.97;4987516;28;20085;-73
2022/03/14 05:07:44;;;;;;;28.60;14.15;;;;;;;0.36;53.84;101477.38;4988412;28;20089;-76
2022/03/14 05:10:11;;;;;;;22.67;12.55;;;;;;;0.37;53.56;101484.31;4988290;28;20047;-69
2022/03/14 05:12:39;;;;;;;23.23;12.57;;;;;;;0.38;53.30;101486.03;4987312;28;20049;-67
2022/03/14 05:15:08;;;;;;;30.15;19.42;;;;;;;0.37;53.78;101481.69;4986204;28;20052;-73
2022/03/14 05:17:35;;;;;;;20.13;11.43;;;;;;;0.38;53.33;101491.25;4986579;28;20056;-69
2022/03/14 05:20:02;;;;;;;23.42;11.52;;;;;;;0.39;53.65;101492.94;4981070;28;20148;-72
2022/03/14 05:22:29;;;;;;;25.50;12.52;;;;;;;0.40;53.24;101492.06;4973115;28;20451;-73
2022/03/14 05:24:57;;;;;;;31.10;18.05;;;;;;;0.41;53.63;101493.78;4979657;28;20046;-71
2022/03/14 05:27:24;;;;;;;23.42;12.25;;;;;;;0.43;53.74;101494.63;4978937;28;20061;-71
2022/03/14 05:29:51;;;;;;;20.52;12.23;;;;;;;0.47;53.42;101483.34;4985815;28;20081;-74
2022/03/14 05:32:20;;;;;;;21.38;12.30;;;;;;;0.50;53.38;101490.22;4968474;28;20328;-70
2022/03/14 05:34:47;;;;;;;27.63;14.75;;;;;;;0.55;53.60;101497.09;4985348;28;20070;-67
2022/03/14 05:37:15;;;;;;;22.40;11.93;;;;;;;0.61;53.61;101500.50;4983155;28;20061;-71
2022/03/14 05:39:44;;;;;;;24.50;13.27;;;;;;;0.66;53.43;101496.13;4983408;28;20055;-70
2022/03/14 05:42:11;;;;;;;23.80;12.30;;;;;;;0.72;53.52;101498.63;4933535;28;20038;-77
2022/03/14 05:44:38;;;;;;;32.33;16.17;;;;;;;0.77;53.71;101502.06;4982821;28;20116;-68
2022/03/14 05:47:05;;;;;;;23.13;11.40;;;;;;;0.82;53.51;101504.59;4983394;28;20207;-69
2022/03/14 05:49:34;;;;;;;29.13;14.50;;;;;;;0.88;53.68;101510.59;4985536;28;20161;-76
2022/03/14 05:52:01;;;;;;;22.88;10.88;;;;;;;0.93;53.51;101513.13;4984457;28;20046;-67
2022/03/14 05:54:28;;;;;;;27.40;16.48;;;;;;;0.98;53.46;101519.16;4981950;28;20098;-66
2022/03/14 05:56:55;;;;;;;24.35;15.00;;;;;;;1.03;53.80;101519.09;4976088;28;20057;-68
2022/03/14 05:59:22;;;;;;;24.10;12.38;;;;;;;1.12;53.66;101514.63;4974567;28;20053;-65
2022/03/14 06:01:50;;;;;;;24.92;15.23;;;;;;;1.15;53.63;101513.72;4987949;28;20053;-67
2022/03/14 06:04:17;;;;;;;24.63;14.32;;;;;;;1.20;53.64;101511.06;4981949;28;20642;-67
2022/03/14 06:06:47;;;;;;;24.58;14.25;;;;;;;1.27;53.67;101517.91;4988178;28;20047;-66
2022/03/14 06:09:14;;;;;;;28.55;15.98;;;;;;;1.33;53.99;101517.81;4988276;28;20107;-67
2022/03/14 06:11:42;;;;;;;22.15;12.80;;;;;;;1.43;53.60;101524.63;4988531;28;20054;-69
2022/03/14 06:14:10;;;;;;;28.90;13.70;;;;;;;1.49;53.83;101523.66;4989116;28;20051;-70
2022/03/14 06:16:38;;;;;;;26.95;13.60;;;;;;;1.56;53.52;101516.63;4987569;28;20058;-68
2022/03/14 06:19:06;;;;;;;19.00;10.98;;;;;;;1.64;53.41;101520.84;4986336;28;20537;-74
2022/03/14 06:21:34;;;;;;;26.42;14.85;;;;;;;1.71;53.25;101516.38;4969300;28;20616;-66
2022/03/14 06:24:03;;;;;;;29.52;15.30;;;;;;;1.79;53.30;101521.50;4985820;28;20578;-72
2022/03/14 06:26:30;;;;;;;18.63;9.43;;;;;;;1.87;53.39;101530.03;4984613;28;20606;-64
2022/03/14 06:28:58;;;;;;;32.53;15.23;;;;;;;1.97;53.22;101525.56;4985745;28;20054;-68
2022/03/14 06:31:24;;;;;;;30.02;17.20;;;;;;;2.02;53.19;101527.19;4985564;28;20710;-71
2022/03/14 06:33:51;;;;;;;29.30;14.73;;;;;;;2.12;52.80;101535.72;4987106;28;20046;-73
2022/03/14 06:36:19;;;;;;;28.02;13.93;;;;;;;2.21;52.69;101535.53;4984696;28;20066;-71
2022/03/14 06:38:46;;;;;;;22.80;14.77;;;;;;;2.31;52.65;101541.47;4985981;28;20047;-69
2022/03/14 06:41:15;;;;;;;20.83;12.30;;;;;;;2.41;52.61;101537.84;4982285;28;20077;-77
2022/03/14 06:43:42;;;;;;;24.52;14.77;;;;;;;2.48;52.51;101543.78;4967570;28;20124;-70
2022/03/14 06:46:09;;;;;;;27.38;18.23;;;;;;;2.56;52.44;101541.03;4986090;28;20110;-71
2022/03/14 06:48:40;;;;;;;24.75;13.35;;;;;;;2.65;52.41;101546.09;4984882;28;20433;-70
2022/03/14 06:51:07;;;;;;;29.20;15.30;;;;;;;2.77;51.93;101539.75;4986523;28;20099;-72
2022/03/14 06:53:34;;;;;;;22.00;13.68;;;;;;;2.84;51.91;101542.22;4990497;28;20043;-72
2022/03/14 06:56:02;;;;;;;19.17;13.80;;;;;;;2.93;51.63;101535.09;4993305;28;20103;-68
2022/03/14 06:58:34;;;;;;;22.77;13.98;;;;;;;3.02;51.58;101540.97;4993487;28;20129;-70
2022/03/14 07:01:01;;;;;;;26.85;14.90;;;;;;;3.13;51.22;101551.19;4991974;28;20662;-73
2022/03/14 07:03:28;;;;;;;18.52;9.90;;;;;;;3.22;51.44;101537.97;4987068;28;20717;-74
2022/03/14 07:05:55;;;;;;;21.38;9.95;;;;;;;3.28;51.10;101549.16;4988324;28;20046;-74
2022/03/14 07:08:22;;;;;;;29.92;16.77;;;;;;;3.34;50.87;101546.44;4988013;28;20076;-71
2022/03/14 07:10:53;;;;;;;20.80;12.48;;;;;;;3.42;50.99;101548.00;4985586;28;20198;-69
2022/03/14 07:13:20;;;;;;;19.58;13.52;;;;;;;3.57;50.63;101546.78;4987011;28;20053;-70
2022/03/14 07:15:52;;;;;;;26.33;16.42;;;;;;;3.64;50.59;101553.59;4985876;28;20046;-72
2022/03/14 07:18:19;;;;;;;24.33;14.30;;;;;;;3.73;50.43;101544.69;4968167;28;20528;-68
2022/03/14 07:20:46;;;;;;;25.23;15.57;;;;;;;3.83;50.04;101550.53;4985475;28;20081;-73
2022/03/14 07:23:13;;;;;;;22.33;14.32;;;;;;;3.89;49.98;101557.38;4984782;28;20051;-70
2022/03/14 07:25:40;;;;;;;26.52;14.93;;;;;;;3.97;49.70;101553.69;4982651;28;20126;-73
2022/03/14 07:28:08;;;;;;;22.50;13.00;;;;;;;4.04;49.76;101549.19;4984019;28;20054;-68
2022/03/14 07:30:37;;;;;;;22.65;12.43;;;;;;;4.15;49.38;101552.38;4985265;28;20053;-72
2022/03/14 07:33:05;;;;;;;29.02;19.73;;;;;;;4.22;49.31;101547.84;4983430;28;20160;-70
2022/03/14 07:35:32;;;;;;;18.08;10.70;;;;;;;4.33;49.27;101556.28;4985761;28;20069;-74
2022/03/14 07:37:59;;;;;;;28.02;17.00;;;;;;;4.43;48.99;101556.03;4987076;28;20123;-70
2022/03/14 07:40:26;;;;;;;23.92;14.32;;;;;;;4.50;48.97;101547.13;4987205;28;20053;-70
2022/03/14 07:42:56;;;;;;;22.48;14.13;;;;;;;4.54;48.68;101552.25;4989105;28;20145;-70
2022/03/14 07:45:24;;;;;;;26.58;16.35;;;;;;;4.62;48.54;101552.03;4994467;28;20081;-68
2022/03/14 07:47:52;;;;;;;32.85;18.88;;;;;;;4.74;48.09;101550.88;4991723;28;20500;-68
2022/03/14 07:50:20;;;;;;;22.65;14.02;;;;;;;4.89;48.20;101552.19;4991340;28;20046;-73
2022/03/14 07:52:48;;;;;;;24.17;14.63;;;;;;;5.04;47.76;101548.28;4983972;28;20086;-71
2022/03/14 07:55:15;;;;;;;25.63;14.77;;;;;;;5.14;47.62;101549.75;4982989;28;20066;-70
2022/03/14 07:57:43;;;;;;;26.75;15.05;;;;;;;5.26;47.53;101552.00;4983914;28;20052;-69
2022/03/14 08:00:12;;;;;;;20.67;11.75;;;;;;;5.33;47.59;101550.03;4984453;28;20050;-77
2022/03/14 08:02:39;;;;;;;21.20;13.70;;;;;;;5.41;47.26;101545.44;4984335;28;20158;-70
2022/03/14 08:05:08;;;;;;;26.38;15.52;;;;;;;5.48;47.12;101553.97;4984776;28;20141;-73
2022/03/14 08:07:37;;;;;;;17.83;11.40;;;;;;;5.62;46.98;101551.78;4984411;28;20089;-69
2022/03/14 08:10:09;;;;;;;21.85;13.43;;;;;;;5.71;46.87;101553.28;4985281;28;20050;-71
2022/03/14 08:12:47;;;;;;;19.52;11.98;;;;;;;5.85;46.87;101555.44;4984392;28;20062;-70
2022/03/14 08:15:20;;;;;;;28.15;16.17;;;;;;;5.94;46.31;101555.13;4983562;28;20053;-75
2022/03/14 08:17:47;;;;;;;25.73;17.08;;;;;;;6.05;46.24;101554.81;4983874;28;20042;-72
2022/03/14 08:20:14;;;;;;;19.25;13.20;;;;;;;6.15;45.93;101556.25;4983632;28;20054;-68
2022/03/14 08:22:43;;;;;;;25.13;14.45;;;;;;;6.27;45.69;101555.84;4983433;28;20085;-76
2022/03/14 08:25:11;;;;;;;21.63;14.77;;;;;;;6.37;45.41;101553.75;4983520;28;20676;-71
2022/03/14 08:27:40;;;;;;;22.63;15.70;;;;;;;6.47;45.18;101556.94;4964858;28;20133;-74
2022/03/14 08:30:09;;;;;;;20.67;13.63;;;;;;;6.61;44.91;101559.94;4987503;28;20112;-73
2022/03/14 08:32:39;;;;;;;23.67;14.50;;;;;;;6.74;44.90;101554.25;4952109;28;20046;-70
2022/03/14 08:35:09;;;;;;;23.88;14.15;;;;;;;6.89;44.57;101553.69;4982522;28;20047;-74
2022/03/14 08:37:38;;;;;;;22.75;15.35;;;;;;;7.20;44.21;101553.44;4981991;28;20057;-75
2022/03/14 08:40:09;;;;;;;24.77;15.50;;;;;;;7.63;43.73;101559.69;4983427;28;20162;-74
2022/03/14 08:42:36;;;;;;;25.27;15.13;;;;;;;7.81;43.11;101552.84;4983724;28;20051;-71
2022/03/14 08:45:06;;;;;;;23.60;14.98;;;;;;;8.06;43.04;101559.69;4985601;28;20046;-74
2022/03/14 08:47:33;;;;;;;27.27;18.02;;;;;;;8.16;42.20;101558.41;4985342;28;20129;-72
2022/03/14 08:50:02;;;;;;;24.17;16.35;;;;;;;8.36;41.94;101556.72;4983967;28;20080;-70
2022/03/14 08:52:29;;;;;;;23.25;13.07;;;;;;;8.38;41.13;101549.63;4985377;28;20123;-70
2022/03/14 08:54:56;;;;;;;30.27;15.85;;;;;;;8.44;41.55;101546.75;4989812;28;20098;-74
2022/03/14 08:57:25;;;;;;;22.55;15.10;;;;;;;8.68;41.34;101546.59;4992287;28;20137;-72
2022/03/14 08:59:52;;;;;;;26.35;15.00;;;;;;;8.86;40.93;101544.94;4994467;28;20073;-73
2022/03/14 09:02:19;;;;;;;24.45;14.85;;;;;;;9.04;40.64;101545.88;4984146;28;20374;-76
2022/03/14 09:04:46;;;;;;;26.27;16.35;;;;;;;9.14;40.17;101542.75;4984109;28;20131;-77
2022/03/14 09:07:25;;;;;;;19.60;14.27;;;;;;;9.27;40.22;101535.13;4983148;28;20116;-73
2022/03/14 09:09:52;;;;;;;23.00;13.98;;;;;;;9.38;39.75;101534.63;4982602;28;20478;-71
2022/03/14 09:12:19;;;;;;;26.15;14.65;;;;;;;9.43;39.92;101531.78;4982190;28;20073;-73
2022/03/14 09:14:48;;;;;;;25.42;16.67;;;;;;;9.56;39.78;101525.88;4983519;28;20104;-71
2022/03/14 09:17:15;;;;;;;22.70;15.40;;;;;;;9.73;39.69;101527.69;4986007;28;20064;-75
2022/03/14 09:19:42;;;;;;;22.55;15.25;;;;;;;10.07;38.98;101517.25;4984695;28;20514;-74
2022/03/14 09:22:10;;;;;;;26.67;15.43;;;;;;;10.29;38.83;101520.50;4985066;28;20050;-74
2022/03/14 09:24:37;;;;;;;21.67;14.70;;;;;;;10.39;38.50;101520.06;4983957;28;20053;-74
2022/03/14 09:27:05;;;;;;;24.50;13.70;;;;;;;10.29;38.75;101523.16;4980858;28;20050;-71
2022/03/14 09:29:32;;;;;;;25.48;16.77;;;;;;;10.47;38.45;101523.19;4985252;28;20042;-74
2022/03/14 09:32:00;;;;;;;23.98;16.08;;;;;;;10.55;37.80;101530.69;4981888;28;20137;-73
2022/03/14 09:34:27;;;;;;;26.35;15.57;;;;;;;10.79;37.85;101524.13;4982266;28;20050;-76
2022/03/14 09:36:55;;;;;;;20.35;13.32;;;;;;;10.96;37.39;101523.22;4985723;28;20081;-77
2022/03/14 09:39:22;;;;;;;25.52;15.07;;;;;;;10.79;37.30;101518.84;4984579;28;20685;-72
2022/03/14 09:41:51;;;;;;;24.30;16.05;;;;;;;10.71;37.45;101518.38;4983186;28;20046;-75
2022/03/14 09:44:21;;;;;;;22.83;15.23;;;;;;;10.79;37.01;101513.56;4983282;28;20133;-77
2022/03/14 09:46:49;;;;;;;22.60;14.10;;;;;;;10.95;36.89;101521.53;4983833;28;20116;-72
2022/03/14 09:49:20;;;;;;;19.20;13.18;;;;;;;11.17;36.45;101520.38;4986874;28;20139;-74
2022/03/14 09:51:47;;;;;;;23.80;15.93;;;;;;;11.11;36.27;101516.28;4987024;28;20050;-73
2022/03/14 09:54:14;;;;;;;25.23;17.58;;;;;;;11.18;36.16;101517.66;4987155;28;20611;-76
2022/03/14 09:56:42;;;;;;;25.50;15.73;;;;;;;11.26;35.95;101520.69;4985034;28;20078;-72
2022/03/14 09:59:13;;;;;;;22.90;14.45;;;;;;;11.42;35.92;101506.63;4987571;28;20671;-70
2022/03/14 10:01:40;;;;;;;24.88;15.30;;;;;;;11.43;35.63;101518.91;4990613;28;20517;-72
2022/03/14 10:04:16;;;;;;;26.70;17.60;;;;;;;11.54;35.47;101520.94;4994419;28;20141;-69
2022/03/14 10:06:45;;;;;;;27.30;15.10;;;;;;;11.56;35.32;101517.31;4955628;28;20074;-69
2022/03/14 10:09:12;;;;;;;23.40;15.68;;;;;;;11.65;35.32;101513.28;4986409;28;20382;-77
2022/03/14 10:11:40;;;;;;;22.42;14.63;;;;;;;11.79;35.17;101510.69;4987332;28;20125;-69
2022/03/14 10:14:10;;;;;;;25.77;15.82;;;;;;;11.81;35.08;101513.22;4990867;28;20092;-71
2022/03/14 10:16:38;;;;;;;27.80;16.40;;;;;;;11.96;34.68;101515.03;4989176;28;20696;-67
2022/03/14 10:19:09;;;;;;;24.67;12.23;;;;;;;12.00;34.48;101507.78;4999152;28;20540;-71
2022/03/14 10:21:39;;;;;;;20.20;14.30;;;;;;;12.04;34.58;101512.78;4988219;28;20149;-73
2022/03/14 10:24:10;;;;;;;18.80;13.25;;;;;;;12.11;34.73;101509.78;4990569;28;20085;-71
2022/03/14 10:26:50;;;;;;;20.98;14.52;;;;;;;12.02;34.52;101511.19;4992676;28;20058;-75
2022/03/14 10:29:24;;;;;;;29.48;17.05;;;;;;;12.06;34.51;101510.06;4994988;28;20058;-73
2022/03/14 10:31:54;;;;;;;23.60;13.57;;;;;;;12.12;34.49;101500.88;4988869;28;20043;-74
2022/03/14 10:34:23;;;;;;;21.75;14.25;;;;;;;12.10;34.46;101506.31;4986768;28;20057;-73
2022/03/14 10:36:53;;;;;;;22.75;14.73;;;;;;;12.09;34.24;101503.72;4972018;28;20050;-76
2022/03/14 10:39:25;;;;;;;22.45;13.77;;;;;;;12.04;34.43;101501.34;4967139;28;20051;-75
2022/03/14 10:42:04;;;;;;;25.17;15.25;;;;;;;12.07;34.35;101502.97;4966518;28;20279;-72
2022/03/14 10:44:32;;;;;;;22.35;14.38;;;;;;;12.19;34.41;101507.53;4979051;28;20572;-76
2022/03/14 10:47:00;;;;;;;23.42;14.15;;;;;;;12.31;34.07;101504.16;4967713;28;20082;-74
2022/03/14 10:49:29;;;;;;;24.17;16.88;;;;;;;12.31;33.97;101498.84;4967089;28;20082;-68
2022/03/14 10:51:57;;;;;;;21.17;15.93;;;;;;;12.42;33.86;101495.56;4967126;28;20046;-71
2022/03/14 10:54:26;;;;;;;23.25;16.17;;;;;;;12.53;33.32;101494.91;4967649;28;20306;-74
2022/03/14 10:57:07;;;;;;;24.33;16.67;;;;;;;12.60;33.55;101494.47;4965073;28;20082;-74
2022/03/14 10:59:42;;;;;;;24.27;16.23;;;;;;;12.69;33.34;101490.38;4967010;28;20050;-75
2022/03/14 11:02:11;;;;;;;22.88;15.77;;;;;;;12.71;33.28;101484.97;4967310;28;20078;-71
2022/03/14 11:04:42;;;;;;;24.95;16.63;;;;;;;12.78;33.41;101487.19;4970066;28;20042;-73
2022/03/14 11:07:10;;;;;;;22.65;15.80;;;;;;;12.98;32.98;101491.22;4965893;28;20568;-73
2022/03/14 11:09:43;;;;;;;27.83;17.23;;;;;;;13.03;32.68;101490.91;4966518;28;20061;-73
2022/03/14 11:12:12;;;;;;;26.10;17.25;;;;;;;12.96;32.81;101485.19;4967057;28;20051;-76
2022/03/14 11:14:39;;;;;;;26.83;16.10;;;;;;;13.03;32.96;101487.44;4967133;28;20480;-70
2022/03/14 11:17:25;;;;;;;21.85;16.65;;;;;;;13.11;32.99;101491.31;4966791;28;20051;-71
2022/03/14 11:19:53;;;;;;;26.50;15.38;;;;;;;13.12;32.62;101487.69;4972754;28;20055;-74
2022/03/14 11:22:22;;;;;;;21.02;13.20;;;;;;;13.09;32.77;101479.06;4967701;28;20051;-72